sensor_id;sensor_type;location;lat;lon;timestamp;pressure;altitude;pressure_sealevel;temperature;humidity
5146;BME280;2591;48.144;15.152;2023-08-01T00:00:03;74431.28;;;-144.65;100.00
5146;BME280;2591;48.144;15.152;2023-08-01T00:02:52;74443.50;;;-144.65;100.00
5146;BME280;2591;48.144;15.152;2023-08-01T00:05:39;74447.59;;;-144.65;100.00
5146;BME280;2591;48.144;15.152;2023-08-01T00:08:29;74447.59;;;-144.65;100.00
5146;BME280;2591;48.144;15.152;2023-08-01T00:11:15;74435.34;;;-144.65;100.00
5146;BME280;2591;48.144;15.152;2023-08-01T00:14:02;74439.44;;;-144.65;100.00
5146;BME280;2591;48.144;15.152;2023-08-01T00:16:48;74443.50;;;-144.65;100.00
5146;BME280;2591;48.144;15.152;2023-08-01T00:19:36;74435.34;;;-144.65;100.00
5146;BME280;2591;48.144;15.152;2023-08-01T00:22:23;74433.31;;;-144.65;100.00
5146;BME280;2591;48.144;15.152;2023-08-01T00:25:09;74433.31;;;-144.65;100.00
5146;BME280;2591;48.144;15.152;2023-08-01T00:27:56;74439.44;;;-144.65;100.00
5146;BME280;2591;48.144;15.152;2023-08-01T00:30:43;74439.44;;;-144.65;100.00
5146;BME280;2591;48.144;15.152;2023-08-01T00:33:29;74435.34;;;-144.65;100.00
5146;BME280;2591;48.144;15.152;2023-08-01T00:36:16;74427.22;;;-144.65;100.00
5146;BME280;2591;48.144;15.152;2023-08-01T00:39:02;74419.06;;;-144.65;100.00
5146;BME280;2591;48.144;15.152;2023-08-01T00:41:49;74414.97;;;-144.65;100.00
5146;BME280;2591;48.144;15.152;2023-08-01T00:44:35;74419.06;;;-144.65;100.00
5146;BME280;2591;48.144;15.152;2023-08-01T00:47:21;74423.13;;;-144.65;100.00
5146;BME280;2591;48.144;15.152;2023-08-01T00:50:08;74427.22;;;-144.65;100.00
5146;BME280;2591;48.144;15.152;2023-08-01T00:52:56;74431.28;;;-144.65;100.00
5146;BME280;2591;48.144;15.152;2023-08-01T00:55:43;74431.28;;;-144.65;100.00
5146;BME280;2591;48.144;15.152;2023-08-01T00:58:29;74443.50;;;-144.65;100.00
5146;BME280;2591;48.144;15.152;2023-08-01T01:01:16;74437.41;;;-144.65;100.00
5146;BME280;2591;48.144;15.152;2023-08-01T01:04:02;74433.31;;;-144.65;100.00
5146;BME280;2591;48.144;15.152;2023-08-01T01:06:52;74429.25;;;-144.65;100.00
5146;BME280;2591;48.144;15.152;2023-08-01T01:09:41;74419.06;;;-144.65;100.00
5146;BME280;2591;48.144;15.152;2023-08-01T01:12:27;74419.06;;;-144.65;100.00
5146;BME280;2591;48.144;15.152;2023-08-01T01:15:13;74402.75;;;-144.65;100.00
5146;BME280;2591;48.144;15.152;2023-08-01T01:18:00;74390.53;;;-144.65;100.00
5146;BME280;2591;48.144;15.152;2023-08-01T01:20:48;74398.69;;;-144.65;100.00
5146;BME280;2591;48.144;15.152;2023-08-01T01:23:34;74398.69;;;-144.65;100.00
5146;BME280;2591;48.144;15.152;2023-08-01T01:26:21;74390.53;;;-144.65;100.00
5146;BME280;2591;48.144;15.152;2023-08-01T01:29:09;74398.69;;;-144.65;100.00
5146;BME280;2591;48.144;15.152;2023-08-01T01:31:57;74392.56;;;-144.65;100.00
5146;BME280;2591;48.144;15.152;2023-08-01T01:34:44;74396.63;;;-144.65;100.00
5146;BME280;2591;48.144;15.152;2023-08-01T01:37:32;74406.81;;;-144.65;100.00
5146;BME280;2591;48.144;15.152;2023-08-01T01:40:18;74406.81;;;-144.65;100.00
5146;BME280;2591;48.144;15.152;2023-08-01T01:43:04;74408.88;;;-144.65;100.00
5146;BME280;2591;48.144;15.152;2023-08-01T01:45:50;74400.72;;;-144.65;100.00
5146;BME280;2591;48.144;15.152;2023-08-01T01:48:36;74398.69;;;-144.65;100.00
5146;BME280;2591;48.144;15.152;2023-08-01T01:51:24;74398.69;;;-144.65;100.00
5146;BME280;2591;48.144;15.152;2023-08-01T01:54:12;74392.56;;;-144.65;100.00
5146;BME280;2591;48.144;15.152;2023-08-01T01:56:58;74390.53;;;-144.65;100.00
5146;BME280;2591;48.144;15.152;2023-08-01T01:59:45;74390.53;;;-144.65;100.00
5146;BME280;2591;48.144;15.152;2023-08-01T02:02:31;74382.38;;;-144.65;100.00
5146;BME280;2591;48.144;15.152;2023-08-01T02:05:17;74382.38;;;-144.65;100.00
5146;BME280;2591;48.144;15.152;2023-08-01T02:08:04;74378.28;;;-144.65;100.00
5146;BME280;2591;48.144;15.152;2023-08-01T02:10:52;74380.34;;;-144.65;100.00
5146;BME280;2591;48.144;15.152;2023-08-01T02:13:40;74378.28;;;-144.65;100.00
5146;BME280;2591;48.144;15.152;2023-08-01T02:16:26;74374.22;;;-144.65;100.00
5146;BME280;2591;48.144;15.152;2023-08-01T02:19:12;74378.28;;;-144.65;100.00
5146;BME280;2591;48.144;15.152;2023-08-01T02:21:58;74372.19;;;-144.65;100.00
5146;BME280;2591;48.144;15.152;2023-08-01T02:24:45;74368.09;;;-144.65;100.00
5146;BME280;2591;48.144;15.152;2023-08-01T02:27:32;74368.09;;;-144.65;100.00
5146;BME280;2591;48.144;15.152;2023-08-01T02:30:19;74366.06;;;-144.65;100.00
5146;BME280;2591;48.144;15.152;2023-08-01T02:33:05;74362.00;;;-144.65;100.00
5146;BME280;2591;48.144;15.152;2023-08-01T02:35:52;74359.97;;;-144.65;100.00
5146;BME280;2591;48.144;15.152;2023-08-01T02:38:38;74370.16;;;-144.65;100.00
5146;BME280;2591;48.144;15.152;2023-08-01T02:41:24;74374.22;;;-144.65;100.00
5146;BME280;2591;48.144;15.152;2023-08-01T02:44:12;74372.19;;;-144.65;100.00
5146;BME280;2591;48.144;15.152;2023-08-01T02:46:59;74359.97;;;-144.65;100.00
5146;BME280;2591;48.144;15.152;2023-08-01T02:49:45;74353.84;;;-144.65;100.00
5146;BME280;2591;48.144;15.152;2023-08-01T02:52:31;74347.72;;;-144.65;100.00
5146;BME280;2591;48.144;15.152;2023-08-01T02:55:17;74345.69;;;-144.65;100.00
5146;BME280;2591;48.144;15.152;2023-08-01T02:58:03;74337.53;;;-144.65;100.00
5146;BME280;2591;48.144;15.152;2023-08-01T03:00:51;74329.38;;;-144.65;100.00
5146;BME280;2591;48.144;15.152;2023-08-01T03:03:37;74325.31;;;-144.65;100.00
5146;BME280;2591;48.144;15.152;2023-08-01T03:06:24;74325.31;;;-144.65;100.00
5146;BME280;2591;48.144;15.152;2023-08-01T03:09:10;74331.44;;;-144.65;100.00
5146;BME280;2591;48.144;15.152;2023-08-01T03:11:56;74341.63;;;-144.65;100.00
5146;BME280;2591;48.144;15.152;2023-08-01T03:14:42;74333.47;;;-144.65;100.00
5146;BME280;2591;48.144;15.152;2023-08-01T03:17:31;74329.38;;;-144.65;100.00
5146;BME280;2591;48.144;15.152;2023-08-01T03:20:18;74325.31;;;-144.65;100.00
5146;BME280;2591;48.144;15.152;2023-08-01T03:23:04;74321.25;;;-144.65;100.00
5146;BME280;2591;48.144;15.152;2023-08-01T03:25:50;74309.00;;;-144.65;100.00
5146;BME280;2591;48.144;15.152;2023-08-01T03:28:37;74311.06;;;-144.65;100.00
5146;BME280;2591;48.144;15.152;2023-08-01T03:31:23;74321.25;;;-144.65;100.00
5146;BME280;2591;48.144;15.152;2023-08-01T03:34:12;74319.19;;;-144.65;100.00
5146;BME280;2591;48.144;15.152;2023-08-01T03:36:58;74311.06;;;-144.65;100.00
5146;BME280;2591;48.144;15.152;2023-08-01T03:39:44;74306.97;;;-144.65;100.00
5146;BME280;2591;48.144;15.152;2023-08-01T03:42:31;74306.97;;;-144.65;100.00
5146;BME280;2591;48.144;15.152;2023-08-01T03:45:17;74313.09;;;-144.65;100.00
5146;BME280;2591;48.144;15.152;2023-08-01T03:48:04;74304.94;;;-144.65;100.00
5146;BME280;2591;48.144;15.152;2023-08-01T03:50:52;74304.94;;;-144.65;100.00
5146;BME280;2591;48.144;15.152;2023-08-01T03:53:38;74304.94;;;-144.65;100.00
5146;BME280;2591;48.144;15.152;2023-08-01T03:56:24;74309.00;;;-144.65;100.00
5146;BME280;2591;48.144;15.152;2023-08-01T03:59:12;74315.13;;;-144.65;100.00
5146;BME280;2591;48.144;15.152;2023-08-01T04:01:59;74325.31;;;-144.65;100.00
5146;BME280;2591;48.144;15.152;2023-08-01T04:04:45;74325.31;;;-144.65;100.00
5146;BME280;2591;48.144;15.152;2023-08-01T04:07:33;74309.00;;;-144.65;100.00
5146;BME280;2591;48.144;15.152;2023-08-01T04:10:19;74309.00;;;-144.65;100.00
5146;BME280;2591;48.144;15.152;2023-08-01T04:13:05;74302.91;;;-144.65;100.00
5146;BME280;2591;48.144;15.152;2023-08-01T04:15:51;74300.88;;;-144.65;100.00
5146;BME280;2591;48.144;15.152;2023-08-01T04:18:37;74296.78;;;-144.65;100.00
5146;BME280;2591;48.144;15.152;2023-08-01T04:21:24;74296.78;;;-144.65;100.00
5146;BME280;2591;48.144;15.152;2023-08-01T04:24:11;74292.72;;;-144.65;100.00
5146;BME280;2591;48.144;15.152;2023-08-01T04:26:58;74288.63;;;-144.65;100.00
5146;BME280;2591;48.144;15.152;2023-08-01T04:29:44;74288.63;;;-144.65;100.00
5146;BME280;2591;48.144;15.152;2023-08-01T04:32:31;74282.53;;;-144.65;100.00
5146;BME280;2591;48.144;15.152;2023-08-01T04:35:18;74284.56;;;-144.65;100.00
5146;BME280;2591;48.144;15.152;2023-08-01T04:38:04;74286.59;;;-144.65;100.00
5146;BME280;2591;48.144;15.152;2023-08-01T04:40:52;74288.63;;;-144.65;100.00
5146;BME280;2591;48.144;15.152;2023-08-01T04:43:38;74294.75;;;-144.65;100.00
5146;BME280;2591;48.144;15.152;2023-08-01T04:46:24;74290.69;;;-144.65;100.00
5146;BME280;2591;48.144;15.152;2023-08-01T04:49:10;74292.72;;;-144.65;100.00
5146;BME280;2591;48.144;15.152;2023-08-01T04:51:57;74292.72;;;-144.65;100.00
5146;BME280;2591;48.144;15.152;2023-08-01T04:54:43;74300.88;;;-144.65;100.00
5146;BME280;2591;48.144;15.152;2023-08-01T04:57:31;74296.78;;;-144.65;100.00
5146;BME280;2591;48.144;15.152;2023-08-01T05:00:17;74292.72;;;-144.65;100.00
5146;BME280;2591;48.144;15.152;2023-08-01T05:03:04;74288.63;;;-144.65;100.00
5146;BME280;2591;48.144;15.152;2023-08-01T05:05:51;74284.56;;;-144.65;100.00
5146;BME280;2591;48.144;15.152;2023-08-01T05:08:37;74288.63;;;-144.65;100.00
5146;BME280;2591;48.144;15.152;2023-08-01T05:11:23;74284.56;;;-144.65;100.00
5146;BME280;2591;48.144;15.152;2023-08-01T05:14:11;74282.53;;;-144.65;100.00
5146;BME280;2591;48.144;15.152;2023-08-01T05:16:57;74290.69;;;-144.65;100.00
5146;BME280;2591;48.144;15.152;2023-08-01T05:19:43;74296.78;;;-144.65;100.00
5146;BME280;2591;48.144;15.152;2023-08-01T05:22:29;74302.91;;;-144.65;100.00
5146;BME280;2591;48.144;15.152;2023-08-01T05:25:15;74286.59;;;-144.65;100.00
5146;BME280;2591;48.144;15.152;2023-08-01T05:28:02;74278.44;;;-144.65;100.00
5146;BME280;2591;48.144;15.152;2023-08-01T05:30:50;74274.38;;;-144.65;100.00
5146;BME280;2591;48.144;15.152;2023-08-01T05:33:36;74268.25;;;-144.65;100.00
5146;BME280;2591;48.144;15.152;2023-08-01T05:36:23;74264.19;;;-144.65;100.00
5146;BME280;2591;48.144;15.152;2023-08-01T05:39:09;74262.16;;;-144.65;100.00
5146;BME280;2591;48.144;15.152;2023-08-01T05:41:56;74264.19;;;-144.65;100.00
5146;BME280;2591;48.144;15.152;2023-08-01T05:44:43;74268.25;;;-144.65;100.00
5146;BME280;2591;48.144;15.152;2023-08-01T05:47:30;74268.25;;;-144.65;100.00
5146;BME280;2591;48.144;15.152;2023-08-01T05:50:17;74270.28;;;-144.65;100.00
5146;BME280;2591;48.144;15.152;2023-08-01T05:53:03;74264.19;;;-144.65;100.00
5146;BME280;2591;48.144;15.152;2023-08-01T05:55:50;74270.28;;;-144.65;100.00
5146;BME280;2591;48.144;15.152;2023-08-01T05:58:36;74268.25;;;-144.65;100.00
5146;BME280;2591;48.144;15.152;2023-08-01T06:01:23;74262.16;;;-144.65;100.00
5146;BME280;2591;48.144;15.152;2023-08-01T06:04:11;74258.06;;;-144.65;100.00
5146;BME280;2591;48.144;15.152;2023-08-01T06:06:58;74256.03;;;-144.65;100.00
5146;BME280;2591;48.144;15.152;2023-08-01T06:09:45;74256.03;;;-144.65;100.00
5146;BME280;2591;48.144;15.152;2023-08-01T06:12:31;74268.25;;;-144.65;100.00
5146;BME280;2591;48.144;15.152;2023-08-01T06:15:17;74266.22;;;-144.65;100.00
5146;BME280;2591;48.144;15.152;2023-08-01T06:18:03;74264.19;;;-144.65;100.00
5146;BME280;2591;48.144;15.152;2023-08-01T06:20:51;74276.41;;;-144.65;100.00
5146;BME280;2591;48.144;15.152;2023-08-01T06:23:38;74268.25;;;-144.65;100.00
5146;BME280;2591;48.144;15.152;2023-08-01T06:26:24;74264.19;;;-144.65;100.00
5146;BME280;2591;48.144;15.152;2023-08-01T06:29:11;74264.19;;;-144.65;100.00
5146;BME280;2591;48.144;15.152;2023-08-01T06:31:57;74260.09;;;-144.65;100.00
5146;BME280;2591;48.144;15.152;2023-08-01T06:34:44;74254.00;;;-144.65;100.00
5146;BME280;2591;48.144;15.152;2023-08-01T06:37:32;74249.91;;;-144.65;100.00
5146;BME280;2591;48.144;15.152;2023-08-01T06:40:18;74256.03;;;-144.65;100.00
5146;BME280;2591;48.144;15.152;2023-08-01T06:43:04;74258.06;;;-144.65;100.00
5146;BME280;2591;48.144;15.152;2023-08-01T06:45:50;74251.97;;;-144.65;100.00
5146;BME280;2591;48.144;15.152;2023-08-01T06:48:37;74249.91;;;-144.65;100.00
5146;BME280;2591;48.144;15.152;2023-08-01T06:51:23;74239.72;;;-144.65;100.00
5146;BME280;2591;48.144;15.152;2023-08-01T06:54:10;74239.72;;;-144.65;100.00
5146;BME280;2591;48.144;15.152;2023-08-01T06:56:56;74245.84;;;-144.65;100.00
5146;BME280;2591;48.144;15.152;2023-08-01T06:59:44;74243.81;;;-144.65;100.00
5146;BME280;2591;48.144;15.152;2023-08-01T07:02:30;74241.78;;;-144.65;100.00
5146;BME280;2591;48.144;15.152;2023-08-01T07:05:16;74241.78;;;-144.65;100.00
5146;BME280;2591;48.144;15.152;2023-08-01T07:08:04;74239.72;;;-144.65;100.00
5146;BME280;2591;48.144;15.152;2023-08-01T07:10:52;74229.53;;;-144.65;100.00
5146;BME280;2591;48.144;15.152;2023-08-01T07:13:38;74229.53;;;-144.65;100.00
5146;BME280;2591;48.144;15.152;2023-08-01T07:16:24;74229.53;;;-144.65;100.00
5146;BME280;2591;48.144;15.152;2023-08-01T07:19:11;74229.53;;;-144.65;100.00
5146;BME280;2591;48.144;15.152;2023-08-01T07:21:57;74229.53;;;-144.65;100.00
5146;BME280;2591;48.144;15.152;2023-08-01T07:24:43;74247.88;;;-144.65;100.00
5146;BME280;2591;48.144;15.152;2023-08-01T07:27:31;74247.88;;;-144.65;100.00
5146;BME280;2591;48.144;15.152;2023-08-01T07:30:17;74237.69;;;-144.65;100.00
5146;BME280;2591;48.144;15.152;2023-08-01T07:33:04;74231.59;;;-144.65;100.00
5146;BME280;2591;48.144;15.152;2023-08-01T07:35:51;74243.81;;;-144.65;100.00
5146;BME280;2591;48.144;15.152;2023-08-01T07:38:37;74237.69;;;-144.65;100.00
5146;BME280;2591;48.144;15.152;2023-08-01T07:41:23;74235.66;;;-144.65;100.00
5146;BME280;2591;48.144;15.152;2023-08-01T07:44:11;74235.66;;;-144.65;100.00
5146;BME280;2591;48.144;15.152;2023-08-01T07:46:57;74235.66;;;-144.65;100.00
5146;BME280;2591;48.144;15.152;2023-08-01T07:49:43;74235.66;;;-144.65;100.00
5146;BME280;2591;48.144;15.152;2023-08-01T07:52:29;74235.66;;;-144.65;100.00
5146;BME280;2591;48.144;15.152;2023-08-01T07:55:16;74231.59;;;-144.65;100.00
5146;BME280;2591;48.144;15.152;2023-08-01T07:58:03;74231.59;;;-144.65;100.00
5146;BME280;2591;48.144;15.152;2023-08-01T08:00:51;74225.47;;;-144.65;100.00
5146;BME280;2591;48.144;15.152;2023-08-01T08:03:37;74221.38;;;-144.65;100.00
5146;BME280;2591;48.144;15.152;2023-08-01T08:06:24;74203.06;;;-144.65;100.00
5146;BME280;2591;48.144;15.152;2023-08-01T08:09:10;74207.13;;;-144.65;100.00
5146;BME280;2591;48.144;15.152;2023-08-01T08:11:56;74205.09;;;-144.65;100.00
5146;BME280;2591;48.144;15.152;2023-08-01T08:14:43;74194.91;;;-144.65;100.00
5146;BME280;2591;48.144;15.152;2023-08-01T08:17:30;74186.75;;;-144.65;100.00
5146;BME280;2591;48.144;15.152;2023-08-01T08:20:16;74182.69;;;-144.65;100.00
5146;BME280;2591;48.144;15.152;2023-08-01T08:23:03;74182.69;;;-144.65;100.00
5146;BME280;2591;48.144;15.152;2023-08-01T08:25:49;74178.59;;;-144.65;100.00
5146;BME280;2591;48.144;15.152;2023-08-01T08:28:36;74170.44;;;-144.65;100.00
5146;BME280;2591;48.144;15.152;2023-08-01T08:31:24;74174.53;;;-144.65;100.00
5146;BME280;2591;48.144;15.152;2023-08-01T08:34:11;74166.38;;;-144.65;100.00
5146;BME280;2591;48.144;15.152;2023-08-01T08:36:58;74164.34;;;-144.65;100.00
5146;BME280;2591;48.144;15.152;2023-08-01T08:39:45;74164.34;;;-144.65;100.00
5146;BME280;2591;48.144;15.152;2023-08-01T08:42:33;74162.31;;;-144.65;100.00
5146;BME280;2591;48.144;15.152;2023-08-01T08:45:20;74160.25;;;-144.65;100.00
5146;BME280;2591;48.144;15.152;2023-08-01T08:48:09;74150.06;;;-144.65;100.00
5146;BME280;2591;48.144;15.152;2023-08-01T08:51:00;74150.06;;;-144.65;100.00
5146;BME280;2591;48.144;15.152;2023-08-01T08:53:49;74141.94;;;-144.65;100.00
5146;BME280;2591;48.144;15.152;2023-08-01T08:56:37;74137.84;;;-144.65;100.00
5146;BME280;2591;48.144;15.152;2023-08-01T08:59:27;74129.69;;;-144.65;100.00
5146;BME280;2591;48.144;15.152;2023-08-01T09:02:15;74127.66;;;-144.65;100.00
5146;BME280;2591;48.144;15.152;2023-08-01T09:05:02;74129.69;;;-144.65;100.00
5146;BME280;2591;48.144;15.152;2023-08-01T09:07:51;74133.78;;;-144.65;100.00
5146;BME280;2591;48.144;15.152;2023-08-01T09:10:41;74137.84;;;-144.65;100.00
5146;BME280;2591;48.144;15.152;2023-08-01T09:13:27;74141.94;;;-144.65;100.00
5146;BME280;2591;48.144;15.152;2023-08-01T09:16:14;74139.88;;;-144.65;100.00
5146;BME280;2591;48.144;15.152;2023-08-01T09:19:01;74154.16;;;-144.65;100.00
5146;BME280;2591;48.144;15.152;2023-08-01T09:21:48;74164.34;;;-144.65;100.00
5146;BME280;2591;48.144;15.152;2023-08-01T09:24:37;74168.41;;;-144.65;100.00
5146;BME280;2591;48.144;15.152;2023-08-01T09:27:32;74164.34;;;-144.65;100.00
5146;BME280;2591;48.144;15.152;2023-08-01T09:30:19;74160.25;;;-144.65;100.00
5146;BME280;2591;48.144;15.152;2023-08-01T09:33:05;74154.16;;;-144.65;100.00
5146;BME280;2591;48.144;15.152;2023-08-01T09:35:52;74152.13;;;-144.65;100.00
5146;BME280;2591;48.144;15.152;2023-08-01T09:38:39;74150.06;;;-144.65;100.00
5146;BME280;2591;48.144;15.152;2023-08-01T09:41:28;74150.06;;;-144.65;100.00
5146;BME280;2591;48.144;15.152;2023-08-01T09:44:15;74150.06;;;-144.65;100.00
5146;BME280;2591;48.144;15.152;2023-08-01T09:47:03;74156.19;;;-144.65;100.00
5146;BME280;2591;48.144;15.152;2023-08-01T09:49:51;74150.06;;;-144.65;100.00
5146;BME280;2591;48.144;15.152;2023-08-01T09:52:39;74154.16;;;-144.65;100.00
5146;BME280;2591;48.144;15.152;2023-08-01T09:55:27;74143.97;;;-144.65;100.00
5146;BME280;2591;48.144;15.152;2023-08-01T09:58:21;74131.72;;;-144.65;100.00
5146;BME280;2591;48.144;15.152;2023-08-01T10:01:08;74113.41;;;-144.65;100.00
5146;BME280;2591;48.144;15.152;2023-08-01T10:03:56;74101.16;;;-144.65;100.00
5146;BME280;2591;48.144;15.152;2023-08-01T10:06:46;74090.97;;;-144.65;100.00
5146;BME280;2591;48.144;15.152;2023-08-01T10:09:34;74099.13;;;-144.65;100.00
5146;BME280;2591;48.144;15.152;2023-08-01T10:12:22;74099.13;;;-144.65;100.00
5146;BME280;2591;48.144;15.152;2023-08-01T10:15:11;74088.94;;;-144.65;100.00
5146;BME280;2591;48.144;15.152;2023-08-01T10:17:57;74076.72;;;-144.65;100.00
5146;BME280;2591;48.144;15.152;2023-08-01T10:20:45;74088.94;;;-144.65;100.00
5146;BME280;2591;48.144;15.152;2023-08-01T10:23:33;74084.88;;;-144.65;100.00
5146;BME280;2591;48.144;15.152;2023-08-01T10:26:19;74097.09;;;-144.65;100.00
5146;BME280;2591;48.144;15.152;2023-08-01T10:29:06;74090.97;;;-144.65;100.00
5146;BME280;2591;48.144;15.152;2023-08-01T10:31:54;74090.97;;;-144.65;100.00
5146;BME280;2591;48.144;15.152;2023-08-01T10:34:50;74099.13;;;-144.65;100.00
5146;BME280;2591;48.144;15.152;2023-08-01T10:37:40;74107.28;;;-144.65;100.00
5146;BME280;2591;48.144;15.152;2023-08-01T10:40:33;74113.41;;;-144.65;100.00
5146;BME280;2591;48.144;15.152;2023-08-01T10:43:19;74105.25;;;-144.65;100.00
5146;BME280;2591;48.144;15.152;2023-08-01T10:46:06;74105.25;;;-144.65;100.00
5146;BME280;2591;48.144;15.152;2023-08-01T10:48:54;74097.09;;;-144.65;100.00
5146;BME280;2591;48.144;15.152;2023-08-01T10:51:40;74090.97;;;-144.65;100.00
5146;BME280;2591;48.144;15.152;2023-08-01T10:54:27;74080.78;;;-144.65;100.00
5146;BME280;2591;48.144;15.152;2023-08-01T10:57:16;74084.88;;;-144.65;100.00
5146;BME280;2591;48.144;15.152;2023-08-01T11:00:05;74084.88;;;-144.65;100.00
5146;BME280;2591;48.144;15.152;2023-08-01T11:02:54;74097.09;;;-144.65;100.00
5146;BME280;2591;48.144;15.152;2023-08-01T11:05:42;74109.31;;;-144.65;100.00
5146;BME280;2591;48.144;15.152;2023-08-01T11:08:34;74105.25;;;-144.65;100.00
5146;BME280;2591;48.144;15.152;2023-08-01T11:11:20;74103.22;;;-144.65;100.00
5146;BME280;2591;48.144;15.152;2023-08-01T11:14:07;74103.22;;;-144.65;100.00
5146;BME280;2591;48.144;15.152;2023-08-01T11:16:54;74109.31;;;-144.65;100.00
5146;BME280;2591;48.144;15.152;2023-08-01T11:19:41;74103.22;;;-144.65;100.00
5146;BME280;2591;48.144;15.152;2023-08-01T11:22:29;74090.97;;;-144.65;100.00
5146;BME280;2591;48.144;15.152;2023-08-01T11:25:16;74109.31;;;-144.65;100.00
5146;BME280;2591;48.144;15.152;2023-08-01T11:28:06;74113.41;;;-144.65;100.00
5146;BME280;2591;48.144;15.152;2023-08-01T11:30:53;74117.47;;;-144.65;100.00
5146;BME280;2591;48.144;15.152;2023-08-01T11:33:39;74103.22;;;-144.65;100.00
5146;BME280;2591;48.144;15.152;2023-08-01T11:36:27;74101.16;;;-144.65;100.00
5146;BME280;2591;48.144;15.152;2023-08-01T11:39:15;74093.03;;;-144.65;100.00
5146;BME280;2591;48.144;15.152;2023-08-01T11:42:03;74084.88;;;-144.65;100.00
5146;BME280;2591;48.144;15.152;2023-08-01T11:44:49;74088.94;;;-144.65;100.00
5146;BME280;2591;48.144;15.152;2023-08-01T11:47:35;74086.91;;;-144.65;100.00
5146;BME280;2591;48.144;15.152;2023-08-01T11:50:23;74090.97;;;-144.65;100.00
5146;BME280;2591;48.144;15.152;2023-08-01T11:53:17;74084.88;;;-144.65;100.00
5146;BME280;2591;48.144;15.152;2023-08-01T11:56:05;74076.72;;;-144.65;100.00
5146;BME280;2591;48.144;15.152;2023-08-01T11:58:52;74068.56;;;-144.65;100.00
5146;BME280;2591;48.144;15.152;2023-08-01T12:01:40;74074.69;;;-144.65;100.00
5146;BME280;2591;48.144;15.152;2023-08-01T12:04:27;74072.66;;;-144.65;100.00
5146;BME280;2591;48.144;15.152;2023-08-01T12:07:15;74080.78;;;-144.65;100.00
5146;BME280;2591;48.144;15.152;2023-08-01T12:10:02;74082.84;;;-144.65;100.00
5146;BME280;2591;48.144;15.152;2023-08-01T12:12:52;74090.97;;;-144.65;100.00
5146;BME280;2591;48.144;15.152;2023-08-01T12:15:38;74097.09;;;-144.65;100.00
5146;BME280;2591;48.144;15.152;2023-08-01T12:18:25;74115.44;;;-144.65;100.00
5146;BME280;2591;48.144;15.152;2023-08-01T12:21:34;74117.47;;;-144.65;100.00
5146;BME280;2591;48.144;15.152;2023-08-01T12:24:21;74113.41;;;-144.65;100.00
5146;BME280;2591;48.144;15.152;2023-08-01T12:27:08;74121.56;;;-144.65;100.00
5146;BME280;2591;48.144;15.152;2023-08-01T12:29:55;74129.69;;;-144.65;100.00
5146;BME280;2591;48.144;15.152;2023-08-01T12:32:42;74129.69;;;-144.65;100.00
5146;BME280;2591;48.144;15.152;2023-08-01T12:35:28;74129.69;;;-144.65;100.00
5146;BME280;2591;48.144;15.152;2023-08-01T12:38:15;74129.69;;;-144.65;100.00
5146;BME280;2591;48.144;15.152;2023-08-01T12:41:01;74129.69;;;-144.65;100.00
5146;BME280;2591;48.144;15.152;2023-08-01T12:43:48;74123.59;;;-144.65;100.00
5146;BME280;2591;48.144;15.152;2023-08-01T12:46:35;74115.44;;;-144.65;100.00
5146;BME280;2591;48.144;15.152;2023-08-01T12:49:22;74115.44;;;-144.65;100.00
5146;BME280;2591;48.144;15.152;2023-08-01T12:52:09;74109.31;;;-144.65;100.00
5146;BME280;2591;48.144;15.152;2023-08-01T12:54:55;74123.59;;;-144.65;100.00
5146;BME280;2591;48.144;15.152;2023-08-01T12:57:41;74125.63;;;-144.65;100.00
5146;BME280;2591;48.144;15.152;2023-08-01T13:00:29;74129.69;;;-144.65;100.00
5146;BME280;2591;48.144;15.152;2023-08-01T13:03:16;74127.66;;;-144.65;100.00
5146;BME280;2591;48.144;15.152;2023-08-01T13:06:03;74125.63;;;-144.65;100.00
5146;BME280;2591;48.144;15.152;2023-08-01T13:08:50;74129.69;;;-144.65;100.00
5146;BME280;2591;48.144;15.152;2023-08-01T13:11:36;74135.81;;;-144.65;100.00
5146;BME280;2591;48.144;15.152;2023-08-01T13:14:26;74137.84;;;-144.65;100.00
5146;BME280;2591;48.144;15.152;2023-08-01T13:17:12;74133.78;;;-144.65;100.00
5146;BME280;2591;48.144;15.152;2023-08-01T13:20:00;74141.94;;;-144.65;100.00
5146;BME280;2591;48.144;15.152;2023-08-01T13:22:48;74146.00;;;-144.65;100.00
5146;BME280;2591;48.144;15.152;2023-08-01T13:25:35;74154.16;;;-144.65;100.00
5146;BME280;2591;48.144;15.152;2023-08-01T13:28:22;74162.31;;;-144.65;100.00
5146;BME280;2591;48.144;15.152;2023-08-01T13:31:08;74172.50;;;-144.65;100.00
5146;BME280;2591;48.144;15.152;2023-08-01T13:33:54;74174.53;;;-144.65;100.00
5146;BME280;2591;48.144;15.152;2023-08-01T13:36:42;74172.50;;;-144.65;100.00
5146;BME280;2591;48.144;15.152;2023-08-01T13:39:28;74166.38;;;-144.65;100.00
5146;BME280;2591;48.144;15.152;2023-08-01T13:42:14;74158.22;;;-144.65;100.00
5146;BME280;2591;48.144;15.152;2023-08-01T13:45:01;74148.03;;;-144.65;100.00
5146;BME280;2591;48.144;15.152;2023-08-01T13:47:48;74141.94;;;-144.65;100.00
5146;BME280;2591;48.144;15.152;2023-08-01T13:50:35;74137.84;;;-144.65;100.00
5146;BME280;2591;48.144;15.152;2023-08-01T13:53:22;74141.94;;;-144.65;100.00
5146;BME280;2591;48.144;15.152;2023-08-01T13:56:09;74150.06;;;-144.65;100.00
5146;BME280;2591;48.144;15.152;2023-08-01T13:58:56;74154.16;;;-144.65;100.00
5146;BME280;2591;48.144;15.152;2023-08-01T14:01:42;74154.16;;;-144.65;100.00
5146;BME280;2591;48.144;15.152;2023-08-01T14:04:29;74156.19;;;-144.65;100.00
5146;BME280;2591;48.144;15.152;2023-08-01T14:07:15;74158.22;;;-144.65;100.00
5146;BME280;2591;48.144;15.152;2023-08-01T14:10:03;74162.31;;;-144.65;100.00
5146;BME280;2591;48.144;15.152;2023-08-01T14:12:50;74158.22;;;-144.65;100.00
5146;BME280;2591;48.144;15.152;2023-08-01T14:15:36;74160.25;;;-144.65;100.00
5146;BME280;2591;48.144;15.152;2023-08-01T14:18:22;74156.19;;;-144.65;100.00
5146;BME280;2591;48.144;15.152;2023-08-01T14:21:08;74152.13;;;-144.65;100.00